sensor_id;sensor_type;location;lat;lon;timestamp;pressure;altitude;pressure_sealevel;temperature;humidity
56807;BME280;42687;42.524;12.052;2023-05-06T00:00:50;96858.72;;;9.78;95.65
56807;BME280;42687;42.524;12.052;2023-05-06T00:03:16;96862.97;;;9.80;96.59
56807;BME280;42687;42.524;12.052;2023-05-06T00:05:42;96859.44;;;9.81;96.96
56807;BME280;42687;42.524;12.052;2023-05-06T00:08:07;96846.69;;;9.74;96.75
56807;BME280;42687;42.524;12.052;2023-05-06T00:10:33;96853.31;;;9.81;93.61
56807;BME280;42687;42.524;12.052;2023-05-06T00:12:59;96857.13;;;9.75;89.04
56807;BME280;42687;42.524;12.052;2023-05-06T00:15:24;96843.91;;;9.77;89.68
56807;BME280;42687;42.524;12.052;2023-05-06T00:17:50;96841.56;;;9.88;88.96
56807;BME280;42687;42.524;12.052;2023-05-06T00:20:16;96843.16;;;9.91;86.79
56807;BME280;42687;42.524;12.052;2023-05-06T00:22:42;96842.91;;;9.95;84.65
56807;BME280;42687;42.524;12.052;2023-05-06T00:25:08;96832.81;;;10.04;82.78
56807;BME280;42687;42.524;12.052;2023-05-06T00:27:33;96839.28;;;10.14;84.01
56807;BME280;42687;42.524;12.052;2023-05-06T00:29:59;96834.69;;;10.17;85.80
56807;BME280;42687;42.524;12.052;2023-05-06T00:32:25;96823.25;;;10.18;87.59
56807;BME280;42687;42.524;12.052;2023-05-06T00:34:50;96842.91;;;10.27;87.94
56807;BME280;42687;42.524;12.052;2023-05-06T00:37:16;96833.09;;;10.31;88.73
56807;BME280;42687;42.524;12.052;2023-05-06T00:39:42;96828.84;;;10.28;88.68
56807;BME280;42687;42.524;12.052;2023-05-06T00:42:07;96789.53;;;10.11;89.01
56807;BME280;42687;42.524;12.052;2023-05-06T00:44:33;96818.50;;;10.25;87.15
56807;BME280;42687;42.524;12.052;2023-05-06T00:46:59;96830.53;;;10.29;89.50
56807;BME280;42687;42.524;12.052;2023-05-06T00:49:27;96828.25;;;10.23;89.41
56807;BME280;42687;42.524;12.052;2023-05-06T00:51:54;96828.00;;;10.28;90.13
56807;BME280;42687;42.524;12.052;2023-05-06T00:54:23;96835.72;;;10.31;89.11
56807;BME280;42687;42.524;12.052;2023-05-06T00:56:50;96834.78;;;10.32;90.16
56807;BME280;42687;42.524;12.052;2023-05-06T00:59:16;96810.44;;;10.12;89.13
56807;BME280;42687;42.524;12.052;2023-05-06T01:01:42;96819.44;;;10.08;87.84
56807;BME280;42687;42.524;12.052;2023-05-06T01:04:08;96827.22;;;9.94;88.17
56807;BME280;42687;42.524;12.052;2023-05-06T01:09:22;96829.75;;;9.79;87.43
56807;BME280;42687;42.524;12.052;2023-05-06T01:11:56;96827.53;;;9.72;86.44
56807;BME280;42687;42.524;12.052;2023-05-06T01:17:09;96830.53;;;9.81;89.13
56807;BME280;42687;42.524;12.052;2023-05-06T01:19:37;96819.84;;;9.84;90.70
56807;BME280;42687;42.524;12.052;2023-05-06T01:22:07;96818.56;;;9.92;90.95
56807;BME280;42687;42.524;12.052;2023-05-06T01:24:42;96821.72;;;9.98;86.10
56807;BME280;42687;42.524;12.052;2023-05-06T01:27:09;96818.84;;;10.03;83.85
56807;BME280;42687;42.524;12.052;2023-05-06T01:29:37;96819.69;;;10.04;84.76
56807;BME280;42687;42.524;12.052;2023-05-06T01:34:54;96830.19;;;9.88;80.98
56807;BME280;42687;42.524;12.052;2023-05-06T01:37:48;96829.50;;;9.84;81.43
56807;BME280;42687;42.524;12.052;2023-05-06T01:40:17;96828.06;;;9.78;87.92
56807;BME280;42687;42.524;12.052;2023-05-06T01:42:46;96828.91;;;9.79;88.53
56807;BME280;42687;42.524;12.052;2023-05-06T01:45:14;96818.97;;;9.84;86.56
56807;BME280;42687;42.524;12.052;2023-05-06T01:47:41;96821.88;;;9.95;85.24
56807;BME280;42687;42.524;12.052;2023-05-06T01:50:09;96818.06;;;10.01;82.41
56807;BME280;42687;42.524;12.052;2023-05-06T01:52:35;96817.13;;;10.02;83.64
56807;BME280;42687;42.524;12.052;2023-05-06T01:55:00;96818.84;;;10.03;85.83
56807;BME280;42687;42.524;12.052;2023-05-06T01:57:27;96812.41;;;10.09;84.36
56807;BME280;42687;42.524;12.052;2023-05-06T01:59:52;96808.66;;;10.13;84.06
56807;BME280;42687;42.524;12.052;2023-05-06T02:02:18;96810.69;;;10.08;83.20
56807;BME280;42687;42.524;12.052;2023-05-06T02:04:44;96815.53;;;9.99;84.37
56807;BME280;42687;42.524;12.052;2023-05-06T02:07:10;96806.72;;;9.84;85.34
56807;BME280;42687;42.524;12.052;2023-05-06T02:09:35;96797.81;;;9.71;82.94
56807;BME280;42687;42.524;12.052;2023-05-06T02:12:01;96799.75;;;9.67;82.56
56807;BME280;42687;42.524;12.052;2023-05-06T02:14:27;96728.91;;;9.34;81.79
56807;BME280;42687;42.524;12.052;2023-05-06T02:16:53;96805.34;;;9.77;81.49
56807;BME280;42687;42.524;12.052;2023-05-06T02:19:19;96808.75;;;9.79;83.01
56807;BME280;42687;42.524;12.052;2023-05-06T02:21:45;96789.34;;;9.66;82.52
56807;BME280;42687;42.524;12.052;2023-05-06T02:24:11;96797.03;;;9.69;83.89
56807;BME280;42687;42.524;12.052;2023-05-06T02:26:36;96791.09;;;9.65;86.79
56807;BME280;42687;42.524;12.052;2023-05-06T02:29:02;96798.66;;;9.72;87.42
56807;BME280;42687;42.524;12.052;2023-05-06T02:31:28;96798.03;;;9.66;88.75
56807;BME280;42687;42.524;12.052;2023-05-06T02:33:53;96788.41;;;9.67;88.70
56807;BME280;42687;42.524;12.052;2023-05-06T02:36:19;96788.63;;;9.62;89.11
56807;BME280;42687;42.524;12.052;2023-05-06T02:38:45;96781.88;;;9.58;88.19
56807;BME280;42687;42.524;12.052;2023-05-06T02:41:10;96773.28;;;9.55;87.74
56807;BME280;42687;42.524;12.052;2023-05-06T02:43:36;96795.69;;;9.62;87.87
56807;BME280;42687;42.524;12.052;2023-05-06T02:46:02;96790.94;;;9.52;86.94
56807;BME280;42687;42.524;12.052;2023-05-06T02:48:28;96794.69;;;9.47;86.29
56807;BME280;42687;42.524;12.052;2023-05-06T02:50:53;96805.47;;;9.42;86.33
56807;BME280;42687;42.524;12.052;2023-05-06T02:53:19;96786.66;;;9.34;86.76
56807;BME280;42687;42.524;12.052;2023-05-06T02:55:45;96800.59;;;9.34;86.64
56807;BME280;42687;42.524;12.052;2023-05-06T02:58:10;96720.78;;;8.89;87.71
56807;BME280;42687;42.524;12.052;2023-05-06T03:00:36;96791.72;;;9.37;86.44
56807;BME280;42687;42.524;12.052;2023-05-06T03:03:02;96784.56;;;9.41;85.28
56807;BME280;42687;42.524;12.052;2023-05-06T03:05:28;96804.13;;;9.51;83.95
56807;BME280;42687;42.524;12.052;2023-05-06T03:07:54;96792.63;;;9.54;85.27
56807;BME280;42687;42.524;12.052;2023-05-06T03:10:19;96791.66;;;9.55;85.74
56807;BME280;42687;42.524;12.052;2023-05-06T03:12:45;96794.75;;;9.63;85.90
56807;BME280;42687;42.524;12.052;2023-05-06T03:15:11;96792.47;;;9.73;84.85
56807;BME280;42687;42.524;12.052;2023-05-06T03:17:36;96787.91;;;9.76;84.51
56807;BME280;42687;42.524;12.052;2023-05-06T03:20:03;96790.59;;;9.75;83.98
56807;BME280;42687;42.524;12.052;2023-05-06T03:22:29;96789.75;;;9.74;83.67
56807;BME280;42687;42.524;12.052;2023-05-06T03:24:54;96772.81;;;9.64;83.41
56807;BME280;42687;42.524;12.052;2023-05-06T03:27:20;96782.47;;;9.63;85.07
56807;BME280;42687;42.524;12.052;2023-05-06T03:29:46;96780.59;;;9.65;86.37
56807;BME280;42687;42.524;12.052;2023-05-06T03:32:11;96771.13;;;9.63;86.94
56807;BME280;42687;42.524;12.052;2023-05-06T03:34:37;96783.91;;;9.69;85.94
56807;BME280;42687;42.524;12.052;2023-05-06T03:37:03;96780.34;;;9.70;86.70
56807;BME280;42687;42.524;12.052;2023-05-06T03:39:28;96781.13;;;9.72;85.54
56807;BME280;42687;42.524;12.052;2023-05-06T03:41:54;96769.94;;;9.68;83.52
56807;BME280;42687;42.524;12.052;2023-05-06T03:44:19;96777.91;;;9.67;82.44
56807;BME280;42687;42.524;12.052;2023-05-06T03:46:45;96776.19;;;9.66;83.11
56807;BME280;42687;42.524;12.052;2023-05-06T03:49:11;96773.06;;;9.59;82.86
56807;BME280;42687;42.524;12.052;2023-05-06T03:51:36;96769.56;;;9.59;83.23
56807;BME280;42687;42.524;12.052;2023-05-06T03:54:02;96775.50;;;9.62;83.03
56807;BME280;42687;42.524;12.052;2023-05-06T03:56:28;96779.66;;;9.66;84.33
56807;BME280;42687;42.524;12.052;2023-05-06T03:58:54;96765.88;;;9.63;84.06
56807;BME280;42687;42.524;12.052;2023-05-06T04:01:19;96768.94;;;9.71;84.16
56807;BME280;42687;42.524;12.052;2023-05-06T04:03:46;96775.63;;;9.77;82.60
56807;BME280;42687;42.524;12.052;2023-05-06T04:06:11;96784.31;;;9.77;82.79
56807;BME280;42687;42.524;12.052;2023-05-06T04:08:37;96772.66;;;9.83;84.21
56807;BME280;42687;42.524;12.052;2023-05-06T04:11:07;96777.06;;;9.82;83.58
56807;BME280;42687;42.524;12.052;2023-05-06T04:13:33;96777.06;;;9.82;84.15
56807;BME280;42687;42.524;12.052;2023-05-06T04:16:00;96787.91;;;9.92;82.08
56807;BME280;42687;42.524;12.052;2023-05-06T04:18:27;96778.75;;;9.99;82.57
56807;BME280;42687;42.524;12.052;2023-05-06T04:20:52;96785.78;;;9.99;83.31
56807;BME280;42687;42.524;12.052;2023-05-06T04:23:19;96787.56;;;9.98;83.80
56807;BME280;42687;42.524;12.052;2023-05-06T04:25:45;96781.78;;;9.92;82.53
56807;BME280;42687;42.524;12.052;2023-05-06T04:28:14;96793.59;;;10.00;82.17
56807;BME280;42687;42.524;12.052;2023-05-06T04:30:42;96793.50;;;10.02;83.00
56807;BME280;42687;42.524;12.052;2023-05-06T04:33:08;96798.56;;;10.05;82.09
56807;BME280;42687;42.524;12.052;2023-05-06T04:35:34;96789.84;;;10.05;80.54
56807;BME280;42687;42.524;12.052;2023-05-06T04:37:59;96809.59;;;10.12;80.52
56807;BME280;42687;42.524;12.052;2023-05-06T04:40:28;96805.19;;;10.12;79.83
56807;BME280;42687;42.524;12.052;2023-05-06T04:42:54;96809.44;;;10.15;79.66
56807;BME280;42687;42.524;12.052;2023-05-06T04:45:20;96815.44;;;10.17;78.82
56807;BME280;42687;42.524;12.052;2023-05-06T04:47:47;96816.22;;;10.19;79.44
56807;BME280;42687;42.524;12.052;2023-05-06T04:50:13;96811.06;;;10.17;78.87
56807;BME280;42687;42.524;12.052;2023-05-06T04:52:39;96818.94;;;10.17;78.97
56807;BME280;42687;42.524;12.052;2023-05-06T04:55:05;96782.56;;;9.94;80.45
56807;BME280;42687;42.524;12.052;2023-05-06T04:57:31;96814.41;;;10.19;80.88
56807;BME280;42687;42.524;12.052;2023-05-06T04:59:57;96817.66;;;10.25;81.41
56807;BME280;42687;42.524;12.052;2023-05-06T05:02:22;96816.53;;;10.29;81.41
56807;BME280;42687;42.524;12.052;2023-05-06T05:04:48;96812.88;;;10.31;81.13
56807;BME280;42687;42.524;12.052;2023-05-06T05:07:15;96754.69;;;10.07;80.24
56807;BME280;42687;42.524;12.052;2023-05-06T05:09:41;96815.28;;;10.52;80.14
56807;BME280;42687;42.524;12.052;2023-05-06T05:12:07;96815.16;;;10.70;78.40
56807;BME280;42687;42.524;12.052;2023-05-06T05:14:32;96815.00;;;10.87;77.57
56807;BME280;42687;42.524;12.052;2023-05-06T05:16:58;96821.16;;;11.02;77.70
56807;BME280;42687;42.524;12.052;2023-05-06T05:19:24;96823.75;;;11.18;77.02
56807;BME280;42687;42.524;12.052;2023-05-06T05:21:49;96810.88;;;11.28;76.66
56807;BME280;42687;42.524;12.052;2023-05-06T05:24:15;96824.53;;;11.49;76.23
56807;BME280;42687;42.524;12.052;2023-05-06T05:26:41;96827.78;;;11.67;75.92
56807;BME280;42687;42.524;12.052;2023-05-06T05:29:06;96814.81;;;11.78;75.77
56807;BME280;42687;42.524;12.052;2023-05-06T05:31:32;96817.72;;;11.88;75.89
56807;BME280;42687;42.524;12.052;2023-05-06T05:33:58;96830.91;;;12.02;75.72
56807;BME280;42687;42.524;12.052;2023-05-06T05:36:24;96819.34;;;12.05;75.72
56807;BME280;42687;42.524;12.052;2023-05-06T05:38:50;96827.97;;;12.22;75.65
56807;BME280;42687;42.524;12.052;2023-05-06T05:41:16;96826.25;;;12.35;74.99
56807;BME280;42687;42.524;12.052;2023-05-06T05:43:41;96829.66;;;12.50;74.68
56807;BME280;42687;42.524;12.052;2023-05-06T05:46:07;96822.00;;;12.60;74.67
56807;BME280;42687;42.524;12.052;2023-05-06T05:48:33;96829.66;;;12.77;74.20
56807;BME280;42687;42.524;12.052;2023-05-06T05:51:02;96820.94;;;12.90;74.14
56807;BME280;42687;42.524;12.052;2023-05-06T05:53:28;96833.44;;;13.13;73.92
56807;BME280;42687;42.524;12.052;2023-05-06T05:55:53;96829.47;;;13.46;73.32
56807;BME280;42687;42.524;12.052;2023-05-06T05:58:19;96827.78;;;14.21;72.04
56807;BME280;42687;42.524;12.052;2023-05-06T06:00:45;96817.56;;;15.13;71.15
56807;BME280;42687;42.524;12.052;2023-05-06T06:03:10;96820.06;;;16.18;70.85
56807;BME280;42687;42.524;12.052;2023-05-06T06:05:36;96809.63;;;17.14;70.95
56807;BME280;42687;42.524;12.052;2023-05-06T06:08:02;96808.59;;;18.10;71.46
56807;BME280;42687;42.524;12.052;2023-05-06T06:10:28;96813.53;;;18.94;70.81
56807;BME280;42687;42.524;12.052;2023-05-06T06:12:55;96751.78;;;19.19;70.98
56807;BME280;42687;42.524;12.052;2023-05-06T06:15:21;96810.66;;;20.02;71.13
56807;BME280;42687;42.524;12.052;2023-05-06T06:17:46;96820.94;;;20.53;70.39
56807;BME280;42687;42.524;12.052;2023-05-06T06:20:12;96813.06;;;20.97;69.85
56807;BME280;42687;42.524;12.052;2023-05-06T06:22:38;96811.31;;;21.50;68.80
56807;BME280;42687;42.524;12.052;2023-05-06T06:25:04;96814.75;;;21.95;67.74
56807;BME280;42687;42.524;12.052;2023-05-06T06:27:33;96808.88;;;22.26;66.57
56807;BME280;42687;42.524;12.052;2023-05-06T06:30:01;96815.84;;;22.53;65.47
56807;BME280;42687;42.524;12.052;2023-05-06T06:32:27;96813.16;;;22.45;65.04
56807;BME280;42687;42.524;12.052;2023-05-06T06:34:53;96811.00;;;22.48;64.38
56807;BME280;42687;42.524;12.052;2023-05-06T06:37:18;96817.88;;;22.51;63.29
56807;BME280;42687;42.524;12.052;2023-05-06T06:39:44;96806.31;;;22.51;62.61
56807;BME280;42687;42.524;12.052;2023-05-06T06:42:09;96804.94;;;22.38;62.09
56807;BME280;42687;42.524;12.052;2023-05-06T06:44:35;96807.28;;;22.41;61.48
56807;BME280;42687;42.524;12.052;2023-05-06T06:47:01;96802.09;;;22.40;61.28
56807;BME280;42687;42.524;12.052;2023-05-06T06:49:29;96803.44;;;22.44;61.14
56807;BME280;42687;42.524;12.052;2023-05-06T06:51:55;96806.72;;;22.80;60.11
56807;BME280;42687;42.524;12.052;2023-05-06T06:54:22;96810.09;;;22.99;59.62
56807;BME280;42687;42.524;12.052;2023-05-06T06:56:48;96812.47;;;23.10;59.64
56807;BME280;42687;42.524;12.052;2023-05-06T06:59:14;96815.50;;;23.32;59.72
56807;BME280;42687;42.524;12.052;2023-05-06T07:01:40;96806.22;;;23.59;59.13
56807;BME280;42687;42.524;12.052;2023-05-06T07:04:06;96811.38;;;23.86;58.83
56807;BME280;42687;42.524;12.052;2023-05-06T07:06:32;96811.25;;;23.95;59.06
56807;BME280;42687;42.524;12.052;2023-05-06T07:08:57;96804.56;;;24.23;58.67
56807;BME280;42687;42.524;12.052;2023-05-06T07:11:23;96815.50;;;24.61;58.19
56807;BME280;42687;42.524;12.052;2023-05-06T07:13:49;96815.25;;;24.79;57.89
56807;BME280;42687;42.524;12.052;2023-05-06T07:16:15;96815.31;;;24.94;58.21
56807;BME280;42687;42.524;12.052;2023-05-06T07:18:41;96809.88;;;25.02;58.58
56807;BME280;42687;42.524;12.052;2023-05-06T07:21:06;96807.97;;;25.11;58.65
56807;BME280;42687;42.524;12.052;2023-05-06T07:23:32;96815.03;;;25.35;58.31
56807;BME280;42687;42.524;12.052;2023-05-06T07:25:58;96809.66;;;25.35;58.71
56807;BME280;42687;42.524;12.052;2023-05-06T07:28:24;96802.94;;;25.31;58.74
56807;BME280;42687;42.524;12.052;2023-05-06T07:30:51;96819.31;;;25.44;59.01
56807;BME280;42687;42.524;12.052;2023-05-06T07:33:17;96821.44;;;25.34;59.45
56807;BME280;42687;42.524;12.052;2023-05-06T07:35:42;96812.50;;;25.34;59.23
56807;BME280;42687;42.524;12.052;2023-05-06T07:38:08;96826.19;;;25.47;58.85
56807;BME280;42687;42.524;12.052;2023-05-06T07:40:34;96820.81;;;25.47;58.85
56807;BME280;42687;42.524;12.052;2023-05-06T07:43:01;96827.81;;;25.56;58.83
56807;BME280;42687;42.524;12.052;2023-05-06T07:45:27;96818.34;;;25.75;58.05
56807;BME280;42687;42.524;12.052;2023-05-06T07:47:52;96822.19;;;25.96;58.11
56807;BME280;42687;42.524;12.052;2023-05-06T07:50:18;96830.09;;;26.12;57.58
56807;BME280;42687;42.524;12.052;2023-05-06T07:52:44;96827.88;;;26.31;56.80
56807;BME280;42687;42.524;12.052;2023-05-06T07:55:09;96818.75;;;26.47;56.23
56807;BME280;42687;42.524;12.052;2023-05-06T07:57:35;96829.34;;;26.48;56.43
56807;BME280;42687;42.524;12.052;2023-05-06T08:00:03;96826.47;;;26.50;56.23
56807;BME280;42687;42.524;12.052;2023-05-06T08:02:29;96827.88;;;26.46;56.44
56807;BME280;42687;42.524;12.052;2023-05-06T08:04:56;96839.72;;;26.67;55.93
56807;BME280;42687;42.524;12.052;2023-05-06T08:07:22;96838.25;;;26.64;55.50
56807;BME280;42687;42.524;12.052;2023-05-06T08:09:47;96846.75;;;26.31;56.39
56807;BME280;42687;42.524;12.052;2023-05-06T08:12:13;96841.84;;;26.20;55.85
56807;BME280;42687;42.524;12.052;2023-05-06T08:14:40;96834.75;;;26.19;56.05
56807;BME280;42687;42.524;12.052;2023-05-06T08:17:06;96838.09;;;26.36;55.85
56807;BME280;42687;42.524;12.052;2023-05-06T08:19:31;96826.34;;;26.58;55.62
56807;BME280;42687;42.524;12.052;2023-05-06T08:21:57;96828.50;;;26.78;54.98
56807;BME280;42687;42.524;12.052;2023-05-06T08:24:23;96837.81;;;26.97;54.32
56807;BME280;42687;42.524;12.052;2023-05-06T08:26:49;96822.72;;;27.03;54.71
56807;BME280;42687;42.524;12.052;2023-05-06T08:29:14;96829.09;;;27.38;54.38
56807;BME280;42687;42.524;12.052;2023-05-06T08:31:40;96836.28;;;27.53;54.08
56807;BME280;42687;42.524;12.052;2023-05-06T08:34:06;96821.16;;;27.58;53.51
56807;BME280;42687;42.524;12.052;2023-05-06T08:36:31;96816.78;;;27.36;53.82
56807;BME280;42687;42.524;12.052;2023-05-06T08:38:57;96786.41;;;26.84;54.23
56807;BME280;42687;42.524;12.052;2023-05-06T08:41:24;96804.31;;;26.55;54.51
56807;BME280;42687;42.524;12.052;2023-05-06T08:43:52;96818.31;;;26.43;55.34
56807;BME280;42687;42.524;12.052;2023-05-06T08:46:19;96824.34;;;26.30;54.96
56807;BME280;42687;42.524;12.052;2023-05-06T08:48:44;96841.25;;;26.24;55.15
56807;BME280;42687;42.524;12.052;2023-05-06T08:51:12;96828.53;;;26.33;55.01
56807;BME280;42687;42.524;12.052;2023-05-06T08:53:45;96830.91;;;26.58;54.77
56807;BME280;42687;42.524;12.052;2023-05-06T08:56:12;96844.69;;;26.48;54.52
56807;BME280;42687;42.524;12.052;2023-05-06T08:58:43;96834.63;;;26.57;54.53
56807;BME280;42687;42.524;12.052;2023-05-06T09:01:09;96843.19;;;26.75;54.68
56807;BME280;42687;42.524;12.052;2023-05-06T09:03:35;96834.06;;;26.76;54.46
56807;BME280;42687;42.524;12.052;2023-05-06T09:06:01;96840.03;;;27.08;54.17
56807;BME280;42687;42.524;12.052;2023-05-06T09:08:26;96844.44;;;27.16;54.04
56807;BME280;42687;42.524;12.052;2023-05-06T09:10:52;96838.94;;;27.24;53.78
56807;BME280;42687;42.524;12.052;2023-05-06T09:13:18;96840.97;;;27.44;53.05
56807;BME280;42687;42.524;12.052;2023-05-06T09:15:48;96829.72;;;27.62;52.93
56807;BME280;42687;42.524;12.052;2023-05-06T09:18:15;96824.94;;;27.92;52.18
56807;BME280;42687;42.524;12.052;2023-05-06T09:20:44;96825.16;;;27.91;52.61
56807;BME280;42687;42.524;12.052;2023-05-06T09:23:11;96830.72;;;28.11;52.50
56807;BME280;42687;42.524;12.052;2023-05-06T09:25:38;96826.34;;;28.10;52.50
56807;BME280;42687;42.524;12.052;2023-05-06T09:28:08;96825.50;;;27.81;52.76
56807;BME280;42687;42.524;12.052;2023-05-06T09:30:42;96839.75;;;27.25;53.45
56807;BME280;42687;42.524;12.052;2023-05-06T09:33:09;96833.16;;;27.06;53.31
56807;BME280;42687;42.524;12.052;2023-05-06T09:35:37;96818.66;;;27.13;53.45
56807;BME280;42687;42.524;12.052;2023-05-06T09:38:04;96835.00;;;27.49;53.47
56807;BME280;42687;42.524;12.052;2023-05-06T09:40:30;96824.25;;;28.05;52.22
56807;BME280;42687;42.524;12.052;2023-05-06T09:42:56;96831.56;;;28.60;51.11
56807;BME280;42687;42.524;12.052;2023-05-06T09:45:22;96836.41;;;28.23;51.52
56807;BME280;42687;42.524;12.052;2023-05-06T09:47:49;96838.47;;;27.42;52.50
56807;BME280;42687;42.524;12.052;2023-05-06T09:50:15;96830.06;;;27.09;53.50
56807;BME280;42687;42.524;12.052;2023-05-06T09:52:44;96826.59;;;27.15;53.43
56807;BME280;42687;42.524;12.052;2023-05-06T09:55:10;96837.06;;;27.46;53.12
56807;BME280;42687;42.524;12.052;2023-05-06T09:57:36;96821.16;;;27.58;53.08
56807;BME280;42687;42.524;12.052;2023-05-06T10:00:03;96822.91;;;27.66;53.13
56807;BME280;42687;42.524;12.052;2023-05-06T10:02:31;96817.00;;;27.56;52.78
56807;BME280;42687;42.524;12.052;2023-05-06T10:04:58;96826.25;;;27.68;52.58
56807;BME280;42687;42.524;12.052;2023-05-06T10:07:29;96828.19;;;27.81;52.82
56807;BME280;42687;42.524;12.052;2023-05-06T10:09:59;96829.03;;;27.82;52.67
56807;BME280;42687;42.524;12.052;2023-05-06T10:12:26;96829.47;;;27.85;52.62
56807;BME280;42687;42.524;12.052;2023-05-06T10:14:52;96821.31;;;27.78;52.79
56807;BME280;42687;42.524;12.052;2023-05-06T10:17:25;96824.22;;;27.77;52.19
56807;BME280;42687;42.524;12.052;2023-05-06T10:19:56;96832.06;;;28.00;51.75
56807;BME280;42687;42.524;12.052;2023-05-06T10:25:20;96830.59;;;27.98;51.83
56807;BME280;42687;42.524;12.052;2023-05-06T10:27:48;96828.19;;;27.81;51.71
56807;BME280;42687;42.524;12.052;2023-05-06T10:30:15;96830.53;;;27.62;52.18
56807;BME280;42687;42.524;12.052;2023-05-06T10:32:43;96831.09;;;27.51;51.95
56807;BME280;42687;42.524;12.052;2023-05-06T10:35:43;96819.97;;;27.39;52.34
56807;BME280;42687;42.524;12.052;2023-05-06T10:40:40;96799.28;;;27.03;52.73
56807;BME280;42687;42.524;12.052;2023-05-06T10:43:22;96820.81;;;26.96;52.71
56807;BME280;42687;42.524;12.052;2023-05-06T10:48:31;96792.28;;;26.87;52.40
56807;BME280;42687;42.524;12.052;2023-05-06T10:56:23;96798.44;;;27.74;50.48
56807;BME280;42687;42.524;12.052;2023-05-06T10:58:50;96797.56;;;27.67;50.44
56807;BME280;42687;42.524;12.052;2023-05-06T11:01:26;96803.88;;;27.53;50.65
56807;BME280;42687;42.524;12.052;2023-05-06T11:03:53;96802.81;;;27.47;50.61
56807;BME280;42687;42.524;12.052;2023-05-06T11:09:00;96805.38;;;27.34;50.66
56807;BME280;42687;42.524;12.052;2023-05-06T11:11:49;96802.22;;;26.87;51.21
56807;BME280;42687;42.524;12.052;2023-05-06T11:14:36;96813.31;;;26.10;52.10
56807;BME280;42687;42.524;12.052;2023-05-06T11:17:27;96805.88;;;25.44;53.19
56807;BME280;42687;42.524;12.052;2023-05-06T11:22:44;96815.41;;;24.77;53.43
56807;BME280;42687;42.524;12.052;2023-05-06T11:25:10;96814.34;;;24.63;53.51
56807;BME280;42687;42.524;12.052;2023-05-06T11:27:37;96810.59;;;24.73;52.81
56807;BME280;42687;42.524;12.052;2023-05-06T11:30:03;96813.16;;;24.89;52.63
56807;BME280;42687;42.524;12.052;2023-05-06T11:32:31;96812.28;;;25.20;51.82
56807;BME280;42687;42.524;12.052;2023-05-06T11:34:57;96799.78;;;25.80;51.11
56807;BME280;42687;42.524;12.052;2023-05-06T11:37:27;96807.75;;;26.63;49.74
56807;BME280;42687;42.524;12.052;2023-05-06T11:39:54;96803.84;;;27.24;48.75
56807;BME280;42687;42.524;12.052;2023-05-06T11:42:27;96796.50;;;27.61;48.08
56807;BME280;42687;42.524;12.052;2023-05-06T11:44:54;96794.56;;;27.90;48.38
56807;BME280;42687;42.524;12.052;2023-05-06T11:47:21;96792.94;;;27.89;48.30
56807;BME280;42687;42.524;12.052;2023-05-06T11:49:52;96764.50;;;27.15;49.20
56807;BME280;42687;42.524;12.052;2023-05-06T11:52:18;96802.06;;;26.73;49.95
56807;BME280;42687;42.524;12.052;2023-05-06T11:54:51;96801.66;;;25.80;51.81
56807;BME280;42687;42.524;12.052;2023-05-06T11:57:18;96806.88;;;24.97;52.62
56807;BME280;42687;42.524;12.052;2023-05-06T11:59:44;96801.84;;;24.31;53.66
56807;BME280;42687;42.524;12.052;2023-05-06T12:02:12;96787.56;;;23.91;54.20
56807;BME280;42687;42.524;12.052;2023-05-06T12:04:43;96803.06;;;23.56;54.59
56807;BME280;42687;42.524;12.052;2023-05-06T12:07:11;96789.81;;;23.62;54.27
56807;BME280;42687;42.524;12.052;2023-05-06T12:09:45;96794.22;;;24.43;52.80
56807;BME280;42687;42.524;12.052;2023-05-06T12:12:15;96799.41;;;25.07;51.84
56807;BME280;42687;42.524;12.052;2023-05-06T12:14:42;96787.81;;;24.84;51.51
56807;BME280;42687;42.524;12.052;2023-05-06T12:17:09;96797.06;;;24.49;51.84
56807;BME280;42687;42.524;12.052;2023-05-06T12:19:35;96789.03;;;24.02;52.65
56807;BME280;42687;42.524;12.052;2023-05-06T12:22:18;96808.38;;;23.89;52.74
56807;BME280;42687;42.524;12.052;2023-05-06T12:24:45;96794.78;;;23.74;53.12
56807;BME280;42687;42.524;12.052;2023-05-06T12:27:11;96802.59;;;23.44;53.39
56807;BME280;42687;42.524;12.052;2023-05-06T12:29:37;96804.09;;;23.38;53.76
56807;BME280;42687;42.524;12.052;2023-05-06T12:32:10;96804.09;;;23.22;53.40
56807;BME280;42687;42.524;12.052;2023-05-06T12:34:40;96791.81;;;23.60;52.89
56807;BME280;42687;42.524;12.052;2023-05-06T12:37:08;96745.44;;;23.83;52.51
56807;BME280;42687;42.524;12.052;2023-05-06T12:39:36;96781.72;;;24.90;51.13
56807;BME280;42687;42.524;12.052;2023-05-06T12:42:03;96781.22;;;25.71;50.12
56807;BME280;42687;42.524;12.052;2023-05-06T12:44:32;96782.66;;;26.48;49.02
56807;BME280;42687;42.524;12.052;2023-05-06T12:47:04;96774.03;;;27.11;49.03
56807;BME280;42687;42.524;12.052;2023-05-06T12:49:45;96789.56;;;27.52;47.79
56807;BME280;42687;42.524;12.052;2023-05-06T12:52:11;96731.94;;;27.17;48.35
56807;BME280;42687;42.524;12.052;2023-05-06T12:54:37;96779.34;;;27.04;49.69
56807;BME280;42687;42.524;12.052;2023-05-06T12:57:03;96776.28;;;27.07;49.47
56807;BME280;42687;42.524;12.052;2023-05-06T12:59:30;96774.91;;;27.40;49.69
56807;BME280;42687;42.524;12.052;2023-05-06T13:01:57;96773.97;;;27.83;49.01
56807;BME280;42687;42.524;12.052;2023-05-06T13:04:23;96739.66;;;27.76;49.23
56807;BME280;42687;42.524;12.052;2023-05-06T13:06:49;96760.84;;;28.08;49.45
56807;BME280;42687;42.524;12.052;2023-05-06T13:09:16;96776.13;;;28.29;48.92
56807;BME280;42687;42.524;12.052;2023-05-06T13:11:43;96758.47;;;27.98;49.32
56807;BME280;42687;42.524;12.052;2023-05-06T13:14:08;96767.09;;;27.02;50.98
56807;BME280;42687;42.524;12.052;2023-05-06T13:16:35;96759.06;;;26.35;51.86
56807;BME280;42687;42.524;12.052;2023-05-06T13:19:02;96755.78;;;25.88;52.36